Terminal Aerodrome Forecast
Issued by NWS Wakefield, VA

Home | Current Version | Previous Version | Text Only | Print | Product List | Glossary On
Versions: 1 2 3 4 5 6 7 8 9 10 11 12 13 14 15 16 17 18 19 20
000
FTUS41 KAKQ 301735
TAFORF
TAF
KORF 301735Z 3018/3118 10010KT P6SM BKN070
     FM310600 13009KT P6SM OVC040
     FM311000 15011KT P6SM SHRA OVC050
     FM311200 15014G22KT 5SM SHRA OVC040
     FM311500 17016G25KT 3SM SHRA OVC008=

USA.gov is the U.S. government's official web portal to all federal, state and local government web resources and services.